createdAt,value
2024-02-12T00:01:49.430Z,87.03
2024-02-12T00:04:20.957Z,87.46
2024-02-12T00:06:52.065Z,88.09
2024-02-12T00:09:24.661Z,87.90
2024-02-12T00:11:57.604Z,88.54
2024-02-12T00:14:28.000Z,88.80
2024-02-12T00:16:59.652Z,88.87
2024-02-12T00:19:31.229Z,88.55
2024-02-12T00:22:02.534Z,88.60
2024-02-12T00:24:32.834Z,88.37
2024-02-12T00:27:04.681Z,88.32
2024-02-12T00:29:36.889Z,88.47
2024-02-12T00:32:08.668Z,88.79
2024-02-12T00:34:39.236Z,88.62
2024-02-12T00:37:41.247Z,88.69
2024-02-12T00:40:43.325Z,88.69
2024-02-12T00:43:14.314Z,89.12
2024-02-12T00:45:45.373Z,89.24
2024-02-12T00:48:15.715Z,89.43
2024-02-12T00:50:46.380Z,89.19
2024-02-12T00:53:17.785Z,89.31
2024-02-12T00:55:48.917Z,89.32
2024-02-12T00:58:19.429Z,89.36
2024-02-12T01:00:49.866Z,89.25
2024-02-12T01:03:20.852Z,88.80
2024-02-12T01:05:53.097Z,87.83
2024-02-12T01:08:28.481Z,88.84
2024-02-12T01:11:03.356Z,89.85
2024-02-12T01:13:35.668Z,90.02
2024-02-12T01:16:06.996Z,89.94
2024-02-12T01:18:38.211Z,89.74
2024-02-12T01:21:09.076Z,89.55
2024-02-12T01:23:39.797Z,89.48
2024-02-12T01:26:10.687Z,89.22
2024-02-12T01:28:41.151Z,89.24
2024-02-12T01:31:20.142Z,89.09
2024-02-12T01:33:51.360Z,88.99
2024-02-12T01:36:21.790Z,89.29
2024-02-12T01:38:52.026Z,89.28
2024-02-12T01:41:23.139Z,89.26
2024-02-12T01:43:54.372Z,89.39
2024-02-12T01:46:25.030Z,89.48
2024-02-12T01:48:57.189Z,89.63
2024-02-12T01:51:28.723Z,90.65
2024-02-12T01:54:01.763Z,90.41
2024-02-12T01:56:33.274Z,90.32
2024-02-12T01:59:06.263Z,90.10
2024-02-12T02:01:36.573Z,90.12
2024-02-12T02:04:09.300Z,90.03
2024-02-12T02:06:40.701Z,90.00
2024-02-12T02:09:10.928Z,90.30
2024-02-12T02:11:41.142Z,90.43
2024-02-12T02:14:16.210Z,90.92
2024-02-12T02:16:47.672Z,91.41
2024-02-12T02:19:17.759Z,91.88
2024-02-12T02:21:49.910Z,92.09
2024-02-12T02:24:21.568Z,92.17
2024-02-12T02:26:52.997Z,91.91
2024-02-12T02:29:25.192Z,91.80
2024-02-12T02:31:55.400Z,91.75
2024-02-12T02:34:25.598Z,91.88
2024-02-12T02:36:57.104Z,91.87
2024-02-12T02:39:29.240Z,91.97
2024-02-12T02:41:59.749Z,92.05
2024-02-12T02:44:29.744Z,92.14
2024-02-12T02:47:00.837Z,92.20
2024-02-12T02:49:33.721Z,92.09
2024-02-12T02:52:05.017Z,92.02
2024-02-12T02:54:36.041Z,91.71
2024-02-12T02:57:10.190Z,91.79
2024-02-12T02:59:41.143Z,91.88
2024-02-12T03:02:14.522Z,91.84
2024-02-12T03:04:45.125Z,92.16
2024-02-12T03:07:17.825Z,92.59
2024-02-12T03:10:00.460Z,92.52
2024-02-12T03:12:33.105Z,92.77
2024-02-12T03:15:03.283Z,93.07
2024-02-12T03:17:34.017Z,92.98
2024-02-12T03:20:04.494Z,92.96
2024-02-12T03:22:35.757Z,92.85
2024-02-12T03:25:08.437Z,92.92
2024-02-12T03:27:46.129Z,93.06
2024-02-12T03:30:17.980Z,93.34
2024-02-12T03:32:49.090Z,93.69
2024-02-12T03:35:21.026Z,93.95
2024-02-12T03:37:52.531Z,94.02
2024-02-12T03:40:25.316Z,94.02
2024-02-12T03:42:55.706Z,93.98
2024-02-12T03:45:26.807Z,93.81
2024-02-12T03:48:02.581Z,93.75
2024-02-12T03:50:51.277Z,93.42
2024-02-12T03:53:42.287Z,93.59
2024-02-12T03:56:31.868Z,93.82
2024-02-12T03:59:22.135Z,93.95
2024-02-12T04:01:52.558Z,94.16
2024-02-12T04:04:23.133Z,94.34
2024-02-12T04:06:54.199Z,94.27
2024-02-12T04:09:25.748Z,94.10
2024-02-12T04:11:56.968Z,94.18
2024-02-12T04:14:27.729Z,94.38
2024-02-12T04:16:59.135Z,94.60
2024-02-12T04:19:30.877Z,94.73
2024-02-12T04:22:01.661Z,94.72
2024-02-12T04:24:32.195Z,94.76
2024-02-12T04:27:06.586Z,94.95
2024-02-12T04:29:40.331Z,94.98
2024-02-12T04:32:18.285Z,95.21
2024-02-12T04:34:50.280Z,95.31
2024-02-12T04:37:21.540Z,95.66
2024-02-12T04:39:52.468Z,95.84
2024-02-12T04:42:24.092Z,96.15
2024-02-12T04:44:54.096Z,96.63
2024-02-12T04:47:25.289Z,96.65
2024-02-12T04:49:57.132Z,96.49
2024-02-12T04:52:27.899Z,96.49
2024-02-12T04:54:58.375Z,96.36
2024-02-12T04:57:28.933Z,96.31
2024-02-12T04:59:59.808Z,96.29
2024-02-12T05:02:29.968Z,96.42
2024-02-12T05:05:00.638Z,96.58
2024-02-12T05:07:33.580Z,96.63
2024-02-12T05:10:04.369Z,96.62
2024-02-12T05:12:34.887Z,96.43
2024-02-12T05:15:06.165Z,96.38
2024-02-12T05:17:57.437Z,96.17
2024-02-12T05:20:46.547Z,96.09
2024-02-12T05:23:17.323Z,95.94
2024-02-12T05:25:47.999Z,95.77
2024-02-12T05:28:19.592Z,95.79
2024-02-12T05:30:51.101Z,95.85
2024-02-12T05:33:21.478Z,95.92
2024-02-12T05:36:00.880Z,96.04
2024-02-12T05:39:02.454Z,96.11
2024-02-12T05:41:33.646Z,96.37
2024-02-12T05:44:04.200Z,96.62
2024-02-12T05:46:34.712Z,96.60
2024-02-12T05:49:06.350Z,96.63
2024-02-12T05:51:37.554Z,96.78
2024-02-12T05:54:08.899Z,96.86
2024-02-12T05:56:42.764Z,96.93
2024-02-12T05:59:14.156Z,97.18
2024-02-12T06:01:45.901Z,97.43
2024-02-12T06:04:16.359Z,97.74
2024-02-12T06:06:47.840Z,97.86
2024-02-12T06:09:20.000Z,98.13
2024-02-12T06:11:51.060Z,98.27
2024-02-12T06:14:21.489Z,98.22
2024-02-12T06:16:52.041Z,98.24
2024-02-12T06:19:23.170Z,98.21
2024-02-12T06:21:54.643Z,98.19
2024-02-12T06:24:24.996Z,98.26
2024-02-12T06:26:55.041Z,98.30
2024-02-12T06:29:27.630Z,98.39
2024-02-12T06:31:58.359Z,98.40
2024-02-12T06:34:29.012Z,98.30
2024-02-12T06:36:58.988Z,98.39
2024-02-12T06:39:29.889Z,98.45
2024-02-12T06:42:00.974Z,98.44
2024-02-12T06:44:32.347Z,98.54
2024-02-12T06:47:02.700Z,98.71
2024-02-12T06:49:33.129Z,98.91
2024-02-12T06:52:03.710Z,98.97
2024-02-12T06:54:35.591Z,98.90
2024-02-12T06:57:06.889Z,98.98
2024-02-12T06:59:36.907Z,99.00
2024-02-12T07:02:07.945Z,98.91
2024-02-12T07:04:39.396Z,99.05
2024-02-12T07:07:09.817Z,99.21
2024-02-12T07:09:39.962Z,99.27
2024-02-12T07:12:10.664Z,99.21
2024-02-12T07:17:12.240Z,99.24
2024-02-12T07:19:54.246Z,99.42
2024-02-12T07:22:28.973Z,99.40
2024-02-12T07:25:02.063Z,99.26
2024-02-12T07:27:33.285Z,99.32
2024-02-12T07:30:03.352Z,99.38
2024-02-12T07:32:34.954Z,99.53
2024-02-12T07:35:07.255Z,99.76
2024-02-12T07:37:41.627Z,99.87
2024-02-12T07:40:13.058Z,99.80
2024-02-12T07:42:47.493Z,99.69
2024-02-12T07:45:19.039Z,99.58
2024-02-12T07:47:49.623Z,99.66
2024-02-12T07:50:19.660Z,99.89
2024-02-12T07:52:50.366Z,99.97
2024-02-12T07:55:22.769Z,99.84
2024-02-12T07:57:53.184Z,99.98
2024-02-12T08:00:23.297Z,99.99
2024-02-12T08:02:55.782Z,99.99
2024-02-12T08:05:26.729Z,99.99
2024-02-12T08:08:03.274Z,99.99
2024-02-12T08:10:34.768Z,99.99
2024-02-12T08:13:06.439Z,99.99
2024-02-12T08:15:40.303Z,99.99
2024-02-12T08:18:11.259Z,99.99
2024-02-12T08:20:41.961Z,99.99
2024-02-12T08:23:13.266Z,99.99
2024-02-12T08:25:44.675Z,99.99
2024-02-12T08:28:15.277Z,99.99
2024-02-12T08:30:46.604Z,99.99
2024-02-12T08:33:17.424Z,99.99
2024-02-12T08:35:49.534Z,99.99
2024-02-12T08:38:19.969Z,99.99
2024-02-12T08:40:53.859Z,99.99
2024-02-12T08:43:24.722Z,99.99
2024-02-12T08:45:55.091Z,99.99
2024-02-12T08:48:25.904Z,99.91
2024-02-12T08:50:56.086Z,99.98
2024-02-12T08:53:26.615Z,99.93
2024-02-12T08:56:33.631Z,99.99
2024-02-12T08:59:09.160Z,99.97
2024-02-12T09:01:41.060Z,99.99
2024-02-12T09:04:11.601Z,99.99
2024-02-12T09:06:45.659Z,99.99
2024-02-12T09:09:16.061Z,99.99
2024-02-12T09:11:46.027Z,99.99
2024-02-12T09:14:19.510Z,99.99
2024-02-12T09:16:51.662Z,99.99
2024-02-12T09:19:22.439Z,99.99
2024-02-12T09:21:53.050Z,99.99
2024-02-12T09:24:25.190Z,99.99
2024-02-12T09:26:56.183Z,99.99
2024-02-12T09:29:26.728Z,99.90
2024-02-12T09:31:56.644Z,99.92
2024-02-12T09:34:30.045Z,99.99
2024-02-12T09:37:01.187Z,99.90
2024-02-12T09:39:31.977Z,99.76
2024-02-12T09:42:03.590Z,99.80
2024-02-12T09:45:13.675Z,99.82
2024-02-12T09:47:46.024Z,99.78
2024-02-12T09:50:17.798Z,99.63
2024-02-12T09:52:48.419Z,99.70
2024-02-12T09:55:23.036Z,99.70
2024-02-12T09:57:54.455Z,99.72
2024-02-12T10:00:25.161Z,99.57
2024-02-12T10:02:55.728Z,99.37
2024-02-12T10:05:29.720Z,99.23
2024-02-12T10:08:03.718Z,98.82
2024-02-12T10:10:37.315Z,98.58
2024-02-12T10:13:10.223Z,98.30
2024-02-12T10:15:44.300Z,97.92
2024-02-12T10:18:19.410Z,97.65
2024-02-12T10:20:51.471Z,97.30
2024-02-12T10:23:22.520Z,96.82
2024-02-12T10:25:54.646Z,96.12
2024-02-12T10:28:25.174Z,95.99
2024-02-12T10:30:56.059Z,95.80
2024-02-12T10:33:27.141Z,95.38
2024-02-12T10:35:59.584Z,93.40
2024-02-12T10:38:32.077Z,90.28
2024-02-12T10:41:33.721Z,88.16
2024-02-12T10:44:05.568Z,88.18
2024-02-12T10:46:40.697Z,86.40
2024-02-12T10:49:12.344Z,85.27
2024-02-12T10:51:44.484Z,84.91
2024-02-12T10:54:14.629Z,85.27
2024-02-12T10:56:48.367Z,85.56
2024-02-12T10:59:20.020Z,86.21
2024-02-12T11:01:52.718Z,86.70
2024-02-12T11:04:29.279Z,87.10
2024-02-12T11:07:21.080Z,87.62
2024-02-12T11:10:05.709Z,87.20
2024-02-12T11:12:36.893Z,87.30
2024-02-12T11:15:45.987Z,84.60
2024-02-12T11:18:38.410Z,84.76
2024-02-12T11:21:14.200Z,85.47
2024-02-12T11:23:45.324Z,85.01
2024-02-12T11:26:17.536Z,85.55
2024-02-12T11:28:57.218Z,85.88
2024-02-12T11:31:30.857Z,86.23
2024-02-12T11:34:01.465Z,86.69
2024-02-12T11:36:32.187Z,86.15
2024-02-12T11:39:04.110Z,83.60
2024-02-12T11:41:35.145Z,83.62
2024-02-12T11:44:09.444Z,82.20
2024-02-12T11:46:40.619Z,83.86
2024-02-12T11:49:11.996Z,84.14
2024-02-12T11:51:43.213Z,85.26
2024-02-12T11:54:16.238Z,82.85
2024-02-12T11:56:49.403Z,80.88
2024-02-12T11:59:24.223Z,79.71
2024-02-12T12:01:55.251Z,76.53
2024-02-12T12:04:26.118Z,74.69
2024-02-12T12:06:58.513Z,73.47
2024-02-12T12:09:31.637Z,72.96
2024-02-12T12:12:03.024Z,72.27
2024-02-12T12:14:41.003Z,71.33
2024-02-12T12:17:29.611Z,71.36
2024-02-12T12:20:03.890Z,70.93
2024-02-12T12:22:34.945Z,69.99
2024-02-12T12:25:07.171Z,72.45
2024-02-12T12:27:39.623Z,72.14
2024-02-12T12:30:22.744Z,72.20
2024-02-12T12:32:55.106Z,72.28
2024-02-12T12:35:26.206Z,74.06
2024-02-12T12:38:52.673Z,75.27
2024-02-12T12:42:14.700Z,71.88
2024-02-12T12:44:46.363Z,72.69
2024-02-12T12:47:16.675Z,71.64
2024-02-12T12:49:47.143Z,69.86
2024-02-12T12:52:17.859Z,70.59
2024-02-12T12:54:49.336Z,71.15
2024-02-12T12:57:20.716Z,71.23
2024-02-12T12:59:51.283Z,71.91
2024-02-12T13:02:22.628Z,72.06
2024-02-12T13:04:54.892Z,74.30
2024-02-12T13:07:25.428Z,73.70
2024-02-12T13:09:55.973Z,74.66
2024-02-12T13:12:26.986Z,76.38
2024-02-12T13:14:57.611Z,76.44
2024-02-12T13:17:27.741Z,77.90
2024-02-12T13:19:57.998Z,77.95
2024-02-12T13:22:28.932Z,77.53
2024-02-12T13:25:07.610Z,76.18
2024-02-12T13:27:43.337Z,74.91
2024-02-12T13:30:14.172Z,75.49
2024-02-12T13:32:49.992Z,76.58
2024-02-12T13:35:21.094Z,73.63
2024-02-12T13:37:52.893Z,75.47
2024-02-12T13:40:26.552Z,74.30
2024-02-12T13:42:58.631Z,73.90
2024-02-12T13:45:29.559Z,72.02
2024-02-12T13:47:59.738Z,73.67
2024-02-12T13:50:30.141Z,74.80
2024-02-12T13:53:01.328Z,71.78
2024-02-12T13:55:33.198Z,74.81
2024-02-12T13:58:03.586Z,74.79
2024-02-12T14:00:51.095Z,74.51
2024-02-12T14:03:27.820Z,72.97
2024-02-12T14:06:00.715Z,71.77
2024-02-12T14:08:31.354Z,70.94
2024-02-12T14:11:01.710Z,70.70
2024-02-12T14:13:32.664Z,73.04
2024-02-12T14:16:09.170Z,70.49
2024-02-12T14:18:45.137Z,68.03
2024-02-12T14:21:15.696Z,67.59
2024-02-12T14:23:45.916Z,60.79
2024-02-12T14:26:18.593Z,59.74
2024-02-12T14:28:48.960Z,62.46
2024-02-12T14:31:20.212Z,62.75
2024-02-12T14:33:52.151Z,63.00
2024-02-12T14:36:23.988Z,63.29
2024-02-12T14:38:54.222Z,63.67
2024-02-12T14:41:26.118Z,62.88
2024-02-12T14:43:58.221Z,63.83
2024-02-12T14:46:29.206Z,66.42
2024-02-12T14:49:00.747Z,65.20
2024-02-12T14:51:31.391Z,68.04
2024-02-12T14:54:02.354Z,66.68
2024-02-12T14:56:33.668Z,67.46
2024-02-12T14:59:06.345Z,67.29
2024-02-12T15:01:43.361Z,63.92
2024-02-12T15:04:14.488Z,63.17
2024-02-12T15:06:44.852Z,63.35
2024-02-12T15:09:27.101Z,58.99
2024-02-12T15:11:57.672Z,61.52
2024-02-12T15:14:29.585Z,60.13
2024-02-12T15:17:00.963Z,60.11
2024-02-12T15:19:31.549Z,61.35
2024-02-12T15:22:01.447Z,59.36
2024-02-12T15:24:31.687Z,62.24
2024-02-12T15:27:02.301Z,60.45
2024-02-12T15:29:35.390Z,58.88
2024-02-12T15:32:09.484Z,61.24
2024-02-12T15:34:42.690Z,61.23
2024-02-12T15:37:14.731Z,61.74
2024-02-12T15:39:50.913Z,61.95
2024-02-12T15:42:25.586Z,64.76
2024-02-12T15:44:56.636Z,65.00
2024-02-12T15:47:28.791Z,62.70
2024-02-12T15:50:00.700Z,63.33
2024-02-12T15:52:31.409Z,62.50
2024-02-12T15:55:01.408Z,63.36
2024-02-12T15:57:32.009Z,62.59
2024-02-12T16:00:02.613Z,61.60
2024-02-12T16:02:42.115Z,61.33
2024-02-12T16:05:52.065Z,62.31
2024-02-12T16:08:23.486Z,61.15
2024-02-12T16:10:56.339Z,63.22
2024-02-12T16:13:30.268Z,62.07
2024-02-12T16:16:02.706Z,60.44
2024-02-12T16:18:34.702Z,62.58
2024-02-12T16:21:10.412Z,64.46
2024-02-12T16:23:42.339Z,62.78
2024-02-12T16:26:14.301Z,60.01
2024-02-12T16:28:45.957Z,60.24
2024-02-12T16:31:22.827Z,60.10
2024-02-12T16:33:53.918Z,59.36
2024-02-12T16:36:25.151Z,61.75
2024-02-12T16:38:56.291Z,53.93
2024-02-12T16:41:26.830Z,55.09
2024-02-12T16:43:57.635Z,54.50
2024-02-12T16:46:27.629Z,55.72
2024-02-12T16:48:59.450Z,55.64
2024-02-12T16:51:32.394Z,55.84
2024-02-12T16:54:09.849Z,54.77
2024-02-12T16:56:42.031Z,54.20
2024-02-12T16:59:12.937Z,54.31
2024-02-12T17:01:44.471Z,57.27
2024-02-12T17:04:15.800Z,56.21
2024-02-12T17:06:47.115Z,54.29
2024-02-12T17:09:17.804Z,53.72
2024-02-12T17:11:49.607Z,53.97
2024-02-12T17:14:20.466Z,53.98
2024-02-12T17:16:51.413Z,53.03
2024-02-12T17:19:21.720Z,52.74
2024-02-12T17:21:55.579Z,53.59
2024-02-12T17:24:28.703Z,51.28
2024-02-12T17:26:58.749Z,53.80
2024-02-12T17:29:29.529Z,53.45
2024-02-12T17:32:00.621Z,52.72
2024-02-12T17:34:32.135Z,50.32
2024-02-12T17:37:02.719Z,52.44
2024-02-12T17:39:37.983Z,50.83
2024-02-12T17:42:11.207Z,51.12
2024-02-12T17:44:42.053Z,52.57
2024-02-12T17:47:12.565Z,51.53
2024-02-12T17:49:52.839Z,53.46
2024-02-12T17:52:24.642Z,49.74
2024-02-12T17:54:55.375Z,49.97
2024-02-12T17:57:25.753Z,50.60
2024-02-12T17:59:57.207Z,52.17
2024-02-12T18:02:27.927Z,53.10
2024-02-12T18:05:00.603Z,51.46
2024-02-12T18:07:31.050Z,51.50
2024-02-12T18:10:01.300Z,51.36
2024-02-12T18:12:33.600Z,51.70
2024-02-12T18:15:04.906Z,53.15
2024-02-12T18:17:36.083Z,54.13
2024-02-12T18:20:08.219Z,53.15
2024-02-12T18:22:39.240Z,52.43
2024-02-12T18:25:14.176Z,53.18
2024-02-12T18:27:44.845Z,52.24
2024-02-12T18:30:17.116Z,52.82
2024-02-12T18:32:50.083Z,55.73
2024-02-12T18:35:24.264Z,52.86
2024-02-12T18:37:54.945Z,51.70
2024-02-12T18:40:25.804Z,52.20
2024-02-12T18:42:56.589Z,51.74
2024-02-12T18:45:27.783Z,53.54
2024-02-12T18:48:01.700Z,53.38
2024-02-12T18:50:32.127Z,54.66
2024-02-12T18:53:06.725Z,52.01
2024-02-12T18:55:45.746Z,52.14
2024-02-12T18:58:15.997Z,52.40
2024-02-12T19:00:45.947Z,54.24
2024-02-12T19:03:18.157Z,54.91
2024-02-12T19:05:50.362Z,57.12
2024-02-12T19:08:24.701Z,57.99
2024-02-12T19:10:55.824Z,57.24
2024-02-12T19:13:26.107Z,59.91
2024-02-12T19:15:57.184Z,59.37
2024-02-12T19:18:28.066Z,60.79
2024-02-12T19:21:00.780Z,62.54
2024-02-12T19:23:32.091Z,66.67
2024-02-12T19:26:04.352Z,69.68
2024-02-12T19:28:35.581Z,63.43
2024-02-12T19:31:06.839Z,62.77
2024-02-12T19:33:37.254Z,65.19
2024-02-12T19:36:08.706Z,67.72
2024-02-12T19:38:42.623Z,68.34
2024-02-12T19:41:13.663Z,68.69
2024-02-12T19:43:43.985Z,70.13
2024-02-12T19:46:15.673Z,70.01
2024-02-12T19:48:46.954Z,72.68
2024-02-12T19:51:18.499Z,77.52
2024-02-12T19:53:49.117Z,81.23
2024-02-12T19:56:20.870Z,85.48
2024-02-12T19:58:51.145Z,86.81
2024-02-12T20:01:21.247Z,86.77
2024-02-12T20:03:52.067Z,89.04
2024-02-12T20:06:22.573Z,90.88
2024-02-12T20:08:52.746Z,91.21
2024-02-12T20:11:23.778Z,92.06
2024-02-12T20:13:54.104Z,91.60
2024-02-12T20:16:25.184Z,92.02
2024-02-12T20:18:56.257Z,92.40
2024-02-12T20:21:27.964Z,93.76
2024-02-12T20:24:01.560Z,94.56
2024-02-12T20:26:33.035Z,95.05
2024-02-12T20:29:06.198Z,95.39
2024-02-12T20:31:38.295Z,95.59
2024-02-12T20:34:09.705Z,95.92
2024-02-12T20:36:41.238Z,96.32
2024-02-12T20:39:11.860Z,96.25
2024-02-12T20:41:42.662Z,95.86
2024-02-12T20:44:15.459Z,95.70
2024-02-12T20:46:46.332Z,95.31
2024-02-12T20:49:17.144Z,95.16
2024-02-12T20:51:52.087Z,94.80
2024-02-12T20:54:23.819Z,95.35
2024-02-12T20:56:55.838Z,95.61
2024-02-12T20:59:28.848Z,95.69
2024-02-12T21:01:59.269Z,95.48
2024-02-12T21:04:29.825Z,95.60
2024-02-12T21:07:01.570Z,95.66
2024-02-12T21:09:33.270Z,95.64
2024-02-12T21:12:04.114Z,95.29
2024-02-12T21:14:39.347Z,95.03
2024-02-12T21:17:10.244Z,95.03
2024-02-12T21:19:40.526Z,95.18
2024-02-12T21:22:12.172Z,95.22
2024-02-12T21:24:43.575Z,95.33
2024-02-12T21:27:18.635Z,95.36
2024-02-12T21:29:49.913Z,94.83
2024-02-12T21:32:20.900Z,94.72
2024-02-12T21:34:51.178Z,94.73
2024-02-12T21:37:22.968Z,94.53
2024-02-12T21:39:55.473Z,94.56
2024-02-12T21:42:26.132Z,94.74
2024-02-12T21:44:58.817Z,94.63
2024-02-12T21:47:32.041Z,93.98
2024-02-12T21:50:03.392Z,94.00
2024-02-12T21:52:33.673Z,94.34
2024-02-12T21:55:04.872Z,94.70
2024-02-12T21:57:37.614Z,95.26
2024-02-12T22:00:09.702Z,95.74
2024-02-12T22:02:40.233Z,95.34
2024-02-12T22:05:10.169Z,94.70
2024-02-12T22:07:40.243Z,94.50
2024-02-12T22:10:13.187Z,94.33
2024-02-12T22:12:46.371Z,94.31
2024-02-12T22:15:17.051Z,94.45
2024-02-12T22:17:47.593Z,94.34
2024-02-12T22:20:19.038Z,94.43
2024-02-12T22:22:51.202Z,94.40
2024-02-12T22:25:22.209Z,94.93
2024-02-12T22:27:58.488Z,95.28
2024-02-12T22:30:28.699Z,95.26
2024-02-12T22:33:00.030Z,95.32
2024-02-12T22:35:31.067Z,95.38
2024-02-12T22:38:02.495Z,95.12
2024-02-12T22:40:33.156Z,95.21
2024-02-12T22:43:04.903Z,95.22
2024-02-12T22:45:36.743Z,95.41
2024-02-12T22:48:08.518Z,95.86
2024-02-12T22:50:42.604Z,95.95
2024-02-12T22:53:12.972Z,95.97
2024-02-12T22:55:44.644Z,96.37
2024-02-12T22:58:15.829Z,96.73
2024-02-12T23:00:46.709Z,96.37
2024-02-12T23:03:17.349Z,96.52
2024-02-12T23:05:49.415Z,96.87
2024-02-12T23:08:20.422Z,96.55
2024-02-12T23:10:50.933Z,96.57
2024-02-12T23:13:21.104Z,96.69
2024-02-12T23:15:52.271Z,96.76
2024-02-12T23:18:23.154Z,96.69
2024-02-12T23:20:53.712Z,96.64
2024-02-12T23:23:23.796Z,96.55
2024-02-12T23:25:54.669Z,96.50
2024-02-12T23:28:25.000Z,96.32
2024-02-12T23:30:56.312Z,96.16
2024-02-12T23:33:27.857Z,95.82
2024-02-12T23:36:00.256Z,95.45
2024-02-12T23:38:32.857Z,95.61
2024-02-12T23:41:03.235Z,95.71
2024-02-12T23:43:33.332Z,95.85
2024-02-12T23:46:04.362Z,96.11
2024-02-12T23:48:42.242Z,96.24
2024-02-12T23:51:14.016Z,96.31
2024-02-12T23:53:44.392Z,96.42
2024-02-12T23:56:23.933Z,96.68
2024-02-12T23:58:55.159Z,96.82
